createdAt,value
2023-04-03T00:06:33.154Z,1.62
2023-04-03T00:16:33.143Z,1.53
2023-04-03T00:26:33.063Z,1.46
2023-04-03T00:36:33.184Z,1.39
2023-04-03T00:46:33.128Z,1.35
2023-04-03T00:56:33.047Z,1.31
2023-04-03T01:06:35.390Z,1.26
2023-04-03T01:16:35.517Z,1.19
2023-04-03T01:26:36.449Z,1.12
2023-04-03T01:36:36.521Z,1.08
2023-04-03T01:46:38.427Z,1.04
2023-04-03T01:56:41.507Z,1.02
2023-04-03T02:06:42.243Z,1.03
2023-04-03T02:16:42.264Z,1.09
2023-04-03T02:26:42.171Z,1.18
2023-04-03T02:36:42.896Z,1.26
2023-04-03T02:46:43.305Z,1.29
2023-04-03T02:56:56.207Z,1.33
2023-04-03T03:06:56.985Z,1.39
2023-04-03T03:16:57.290Z,1.48
2023-04-03T03:26:57.263Z,1.57
2023-04-03T03:36:57.380Z,1.65
2023-04-03T03:46:57.472Z,1.72
2023-04-03T03:56:58.623Z,1.75
2023-04-03T04:06:58.417Z,1.75
2023-04-03T04:17:00.067Z,1.74
2023-04-03T04:27:00.615Z,1.75
2023-04-03T04:37:01.133Z,1.74
2023-04-03T04:47:02.046Z,1.71
2023-04-03T04:57:02.957Z,1.68
2023-04-03T05:07:03.947Z,1.67
2023-04-03T05:17:06.065Z,1.69
2023-04-03T05:27:08.119Z,1.72
2023-04-03T05:37:09.106Z,1.75
2023-04-03T05:47:09.557Z,1.82
2023-04-03T05:57:10.370Z,1.97
2023-04-03T06:07:10.634Z,2.44
2023-04-03T06:17:11.464Z,3.22
2023-04-03T06:27:11.887Z,3.77
2023-04-03T06:37:12.406Z,4.27
2023-04-03T06:47:12.483Z,5.05
2023-04-03T06:57:12.525Z,7.26
2023-04-03T07:07:12.490Z,9.39
2023-04-03T07:17:12.507Z,10.42
2023-04-03T07:27:13.171Z,11.67
2023-04-03T07:37:13.508Z,10.65
2023-04-03T07:47:14.896Z,9.64
2023-04-03T07:57:15.774Z,11.44
2023-04-03T08:07:15.592Z,15.85
2023-04-03T08:17:15.590Z,19.36
2023-04-03T08:27:15.594Z,21.92
2023-04-03T08:37:16.771Z,23.14
2023-04-03T08:47:16.931Z,23.43
2023-04-03T08:57:16.631Z,23.54
2023-04-03T09:07:16.691Z,24.34
2023-04-03T09:17:16.929Z,25.74
2023-04-03T09:27:16.692Z,26.84
2023-04-03T09:37:16.796Z,27.35
2023-04-03T09:47:16.703Z,27.33
2023-04-03T09:57:16.837Z,26.89
2023-04-03T10:07:16.745Z,26.23
2023-04-03T10:17:16.723Z,25.00
2023-04-03T10:27:16.750Z,22.61
2023-04-03T10:37:16.971Z,19.66
2023-04-03T10:47:16.775Z,17.26
2023-04-03T10:57:17.151Z,15.63
2023-04-03T11:07:18.195Z,14.63
2023-04-03T11:17:18.806Z,13.83
2023-04-03T11:27:19.752Z,12.98
2023-04-03T11:37:19.818Z,12.20
2023-04-03T11:47:20.005Z,11.62
2023-04-03T11:57:19.874Z,11.22
2023-04-03T12:07:20.345Z,10.97
2023-04-03T12:17:21.338Z,10.76
2023-04-03T12:27:21.975Z,10.61
2023-04-03T12:37:22.325Z,10.52
2023-04-03T12:47:23.241Z,10.48
2023-04-03T12:57:23.987Z,10.50
2023-04-03T13:07:25.912Z,10.51
2023-04-03T13:17:26.136Z,10.52
2023-04-03T13:27:26.138Z,10.53
2023-04-03T13:37:26.069Z,10.53
2023-04-03T13:47:26.066Z,10.58
2023-04-03T13:57:26.159Z,10.62
2023-04-03T14:07:26.058Z,10.63
2023-04-03T14:17:26.884Z,10.66
2023-04-03T14:27:27.307Z,10.69
2023-04-03T14:37:28.336Z,10.74
2023-04-03T14:47:31.646Z,10.79
2023-04-03T14:57:30.219Z,10.81
2023-04-03T15:07:30.153Z,10.80
2023-04-03T15:17:30.198Z,10.79
2023-04-03T15:27:30.108Z,10.73
2023-04-03T15:37:30.534Z,10.62
2023-04-03T15:47:31.270Z,10.53
2023-04-03T16:07:31.213Z,10.35
2023-04-03T16:17:31.455Z,10.21
2023-04-03T16:27:32.170Z,10.07
2023-04-03T16:37:33.146Z,9.89
2023-04-03T16:47:33.351Z,9.69
2023-04-03T16:57:33.248Z,9.50
2023-04-03T17:07:33.292Z,9.29
2023-04-03T17:17:33.342Z,9.09
2023-04-03T17:27:33.375Z,8.86
2023-04-03T17:37:33.251Z,8.61
2023-04-03T17:47:33.318Z,8.34
2023-04-03T17:57:33.272Z,8.05
2023-04-03T18:07:33.335Z,7.76
2023-04-03T18:17:33.553Z,7.46
2023-04-03T18:27:33.392Z,7.17
2023-04-03T18:37:33.436Z,6.89
2023-04-03T18:47:33.552Z,6.67
2023-04-03T18:57:33.491Z,6.49
2023-04-03T19:07:33.365Z,6.31
2023-04-03T19:17:33.443Z,6.13
2023-04-03T19:27:33.993Z,5.95
2023-04-03T19:37:34.457Z,5.81
2023-04-03T19:47:34.796Z,5.73
2023-04-03T19:57:34.516Z,5.66
2023-04-03T20:07:34.649Z,5.60
2023-04-03T20:17:34.659Z,5.55
2023-04-03T20:27:34.620Z,5.47
2023-04-03T20:37:35.746Z,5.38
2023-04-03T20:47:35.605Z,5.24
2023-04-03T20:57:35.583Z,5.07
2023-04-03T21:07:37.747Z,4.91
2023-04-03T21:17:37.679Z,4.74
2023-04-03T21:27:38.317Z,4.57
2023-04-03T21:37:38.914Z,4.41
2023-04-03T21:47:39.502Z,4.23
2023-04-03T21:57:39.611Z,4.03
2023-04-03T22:07:39.580Z,3.81
2023-04-03T22:17:39.589Z,3.59
2023-04-03T22:27:39.650Z,3.36
2023-04-03T22:37:39.573Z,3.11
2023-04-03T22:47:39.640Z,2.83
2023-04-03T22:57:39.645Z,2.56
2023-04-03T23:07:39.634Z,2.33
2023-04-03T23:17:39.633Z,2.09
2023-04-03T23:27:39.658Z,1.86
2023-04-03T23:37:40.065Z,1.63
2023-04-03T23:47:40.659Z,1.43
2023-04-03T23:57:40.732Z,1.27
